Time;durP1;ratioP1;P1;durP2;ratioP2;P2;SDS_P1;SDS_P2;PMS_P1;PMS_P2;Temp;Humidity;BMP_temperature;BMP_pressure;BME280_temperature;BME280_humidity;BME280_pressure;Samples;Min_cycle;Max_cycle;Signal;HPM_P1;HPM_P2
2022/03/04 00:02:33;;;;;;;76.00;40.88;;;;;;;1.87;83.11;100645.44;2845227;83;21079;-68
2022/03/04 00:06:34;;;;;;;78.45;46.08;;;;;;;1.77;83.57;100652.83;2845273;83;21004;-68
2022/03/04 00:10:36;;;;;;;71.55;43.23;;;;;;;1.75;83.81;100645.47;2845174;83;21012;-69
2022/03/04 00:14:38;;;;;;;73.22;42.15;;;;;;;1.70;84.58;100646.52;2845055;83;22326;-69
2022/03/04 00:18:40;;;;;;;77.25;41.92;;;;;;;1.64;85.22;100639.34;2845220;83;21138;-68
2022/03/04 00:22:42;;;;;;;84.37;46.40;;;;;;;1.56;85.93;100652.27;2845254;83;21039;-68
2022/03/04 00:26:44;;;;;;;63.75;41.58;;;;;;;1.61;85.77;100646.02;2838740;83;21039;-68
2022/03/04 00:30:46;;;;;;;78.67;43.60;;;;;;;1.60;85.88;100646.94;2831675;84;21570;-68
2022/03/04 00:34:47;;;;;;;72.42;40.85;;;;;;;1.59;86.28;100647.84;2831702;84;21011;-69
2022/03/04 00:38:50;;;;;;;70.32;41.05;;;;;;;1.59;86.65;100650.00;2831365;84;21087;-69
2022/03/04 00:42:52;;;;;;;82.35;41.77;;;;;;;1.59;86.96;100652.62;2823373;84;21080;-69
2022/03/04 00:46:53;;;;;;;73.07;44.75;;;;;;;1.51;87.41;100655.53;2823680;84;21060;-69
2022/03/04 00:50:55;;;;;;;77.17;43.95;;;;;;;1.58;87.01;100653.53;2823964;84;21051;-69
2022/03/04 00:54:56;;;;;;;76.45;41.63;;;;;;;1.58;86.97;100647.45;2823843;84;21063;-69
2022/03/04 00:58:58;;;;;;;77.27;39.98;;;;;;;1.60;87.16;100648.25;2823727;84;21099;-69
2022/03/04 01:03:01;;;;;;;70.67;41.63;;;;;;;1.59;87.26;100649.16;2823562;84;21087;-69
2022/03/04 01:07:03;;;;;;;72.60;41.55;;;;;;;1.67;86.91;100644.02;2823333;84;21091;-69
2022/03/04 01:11:05;;;;;;;63.68;41.75;;;;;;;1.74;86.98;100642.45;2823727;84;21039;-69
2022/03/04 01:15:08;;;;;;;66.95;43.73;;;;;;;1.91;86.47;100635.22;2823666;84;21106;-69
2022/03/04 01:19:10;;;;;;;59.08;34.20;;;;;;;1.94;85.99;100635.09;2823557;84;21098;-69
2022/03/04 01:23:11;;;;;;;75.47;41.45;;;;;;;1.86;85.90;100635.39;2823582;84;21067;-69
2022/03/04 01:27:13;;;;;;;59.95;38.13;;;;;;;1.77;86.14;100637.95;2817294;84;21044;-68
2022/03/04 01:31:15;;;;;;;62.13;40.23;;;;;;;1.77;86.09;100627.46;2731217;85;21042;-68
2022/03/04 01:35:17;;;;;;;72.00;39.85;;;;;;;1.70;86.64;100626.84;2773703;85;21069;-69
2022/03/04 01:39:19;;;;;;;68.28;43.20;;;;;;;1.71;86.47;100623.75;2778920;84;21062;-69
2022/03/04 01:43:21;;;;;;;61.35;37.42;;;;;;;1.79;86.17;100619.07;2773872;85;21129;-68
2022/03/04 01:47:22;;;;;;;77.37;45.38;;;;;;;1.78;86.27;100624.36;2778276;85;21089;-69
2022/03/04 01:51:24;;;;;;;67.47;41.95;;;;;;;1.82;86.42;100613.70;2773538;85;21074;-69
2022/03/04 01:55:26;;;;;;;72.92;40.48;;;;;;;1.94;85.95;100612.78;2810783;84;21588;-69
2022/03/04 01:59:28;;;;;;;70.55;38.60;;;;;;;2.05;85.50;100609.28;2810831;84;21615;-69
2022/03/04 02:03:29;;;;;;;63.35;37.55;;;;;;;2.03;85.55;100607.63;2811288;84;21071;-69
2022/03/04 02:07:31;;;;;;;68.75;38.02;;;;;;;2.14;85.30;100602.32;2810860;84;21059;-69
2022/03/04 02:11:33;;;;;;;57.83;38.42;;;;;;;2.23;85.09;100612.06;2811006;83;21094;-68
2022/03/04 02:15:34;;;;;;;65.50;40.23;;;;;;;2.13;85.25;100601.93;2811095;84;21053;-69
2022/03/04 02:19:36;;;;;;;66.30;35.03;;;;;;;2.18;85.30;100598.28;2811058;84;21004;-69
2022/03/04 02:23:37;;;;;;;60.45;34.60;;;;;;;2.06;85.60;100596.99;2810896;84;21056;-69
2022/03/04 02:27:39;;;;;;;64.25;34.78;;;;;;;2.01;85.88;100597.20;2811022;83;21024;-69
2022/03/04 02:31:41;;;;;;;68.22;38.02;;;;;;;2.06;86.11;100592.61;2811271;84;21115;-69
2022/03/04 02:35:43;;;;;;;64.65;38.67;;;;;;;2.05;86.49;100590.91;2811476;83;21650;-69
2022/03/04 02:39:44;;;;;;;63.68;38.50;;;;;;;2.22;86.19;100591.98;2812044;84;21699;-69
2022/03/04 02:43:46;;;;;;;75.25;39.75;;;;;;;2.35;85.57;100594.45;2811814;84;21055;-69
2022/03/04 02:47:48;;;;;;;59.98;36.63;;;;;;;2.31;85.53;100599.45;2811822;84;21123;-69
2022/03/04 02:51:49;;;;;;;56.48;36.53;;;;;;;2.21;86.05;100589.80;2811868;84;21601;-69
2022/03/04 02:55:50;;;;;;;56.35;35.20;;;;;;;2.21;86.20;100596.36;2811789;84;21036;-67
2022/03/04 02:59:52;;;;;;;58.98;34.63;;;;;;;2.16;86.44;100598.33;2811608;84;21024;-69
2022/03/04 03:03:54;;;;;;;56.08;35.65;;;;;;;2.08;86.85;100597.34;2811655;84;21059;-69
2022/03/04 03:07:55;;;;;;;67.35;45.67;;;;;;;2.17;86.63;100604.45;2797075;84;21107;-68
2022/03/04 03:11:57;;;;;;;84.65;50.00;;;;;;;2.18;86.59;100602.22;2869801;83;20977;-66
2022/03/04 03:15:58;;;;;;;83.10;46.40;;;;;;;2.14;86.86;100609.36;2869543;83;20981;-69
2022/03/04 03:20:00;;;;;;;71.67;41.95;;;;;;;2.11;87.38;100595.89;2869679;83;20985;-69
2022/03/04 03:24:03;;;;;;;70.03;41.13;;;;;;;2.17;87.19;100589.54;2846124;83;21058;-69
2022/03/04 03:28:05;;;;;;;63.13;38.85;;;;;;;2.19;87.22;100589.02;2831915;84;21067;-69
2022/03/04 03:32:08;;;;;;;64.27;41.15;;;;;;;2.37;86.68;100588.71;2832496;84;21059;-69
2022/03/04 03:36:10;;;;;;;77.47;45.40;;;;;;;2.39;86.18;100610.50;2832117;84;21094;-69
2022/03/04 03:40:13;;;;;;;73.12;42.93;;;;;;;2.55;85.96;100622.50;2832125;84;21016;-69
2022/03/04 03:44:14;;;;;;;83.07;41.92;;;;;;;2.64;85.81;100626.95;2824146;84;21118;-69
2022/03/04 03:48:16;;;;;;;82.65;44.30;;;;;;;2.80;85.63;100629.31;2776842;84;21083;-68
2022/03/04 03:52:17;;;;;;;64.60;40.60;;;;;;;2.96;84.98;100633.45;2763289;85;21070;-68
2022/03/04 03:56:20;;;;;;;78.55;49.95;;;;;;;3.08;84.41;100632.49;2764772;84;21003;-70
2022/03/04 04:00:22;;;;;;;63.42;43.02;;;;;;;3.16;83.67;100625.12;2767897;85;21114;-69
2022/03/04 04:04:23;;;;;;;73.02;42.08;;;;;;;3.16;83.13;100633.47;2765808;85;21078;-68
2022/03/04 04:08:25;;;;;;;71.42;43.42;;;;;;;3.12;83.01;100623.54;2732067;85;21147;-69
2022/03/04 04:12:26;;;;;;;74.35;44.38;;;;;;;3.16;83.42;100632.15;2747049;85;21027;-69
2022/03/04 04:16:28;;;;;;;73.35;44.25;;;;;;;3.23;82.99;100634.88;2754781;84;21071;-69
2022/03/04 04:20:30;;;;;;;73.80;45.10;;;;;;;3.18;82.91;100640.37;2778833;85;21004;-68
2022/03/04 04:24:32;;;;;;;72.05;43.38;;;;;;;3.14;82.75;100640.09;2779497;85;21094;-69
2022/03/04 04:28:34;;;;;;;64.47;36.85;;;;;;;3.07;83.00;100638.23;2780348;84;21054;-68
2022/03/04 04:32:35;;;;;;;76.30;44.23;;;;;;;3.04;83.07;100633.55;2776104;85;21043;-68
2022/03/04 04:36:37;;;;;;;67.65;41.90;;;;;;;2.96;83.36;100639.16;2813500;84;21571;-67
2022/03/04 04:40:39;;;;;;;68.17;42.20;;;;;;;3.02;83.54;100636.72;2813161;83;21106;-68
2022/03/04 04:44:40;;;;;;;75.35;43.35;;;;;;;2.99;83.20;100635.06;2813429;84;21049;-67
2022/03/04 04:48:42;;;;;;;70.95;42.45;;;;;;;2.94;83.30;100635.27;2813370;84;21062;-68
2022/03/04 04:52:44;;;;;;;68.28;41.30;;;;;;;2.99;83.57;100635.06;2813330;83;21022;-68
2022/03/04 04:56:45;;;;;;;68.02;41.20;;;;;;;2.98;83.35;100639.49;2813019;84;21105;-68
2022/03/04 05:00:53;;;;;;;67.82;40.33;;;;;;;3.02;83.33;100640.66;2813546;84;21046;-68
2022/03/04 05:04:50;;;;;;;64.65;36.70;;;;;;;3.02;83.35;100640.66;2812488;84;21007;-68
2022/03/04 05:08:52;;;;;;;73.40;41.92;;;;;;;3.04;83.54;100638.81;2813763;84;21043;-68
2022/03/04 05:12:54;;;;;;;81.47;40.50;;;;;;;3.00;83.48;100640.27;2813595;84;21070;-70
2022/03/04 05:16:56;;;;;;;70.37;41.68;;;;;;;3.04;83.70;100638.81;2813373;84;21022;-70
2022/03/04 05:20:57;;;;;;;71.42;43.63;;;;;;;2.98;83.64;100636.86;2813560;84;21050;-70
2022/03/04 05:24:59;;;;;;;67.75;41.28;;;;;;;2.99;83.95;100632.44;2812912;84;21046;-70
2022/03/04 05:29:02;;;;;;;65.55;40.05;;;;;;;2.91;84.09;100630.15;2812568;84;21062;-70
2022/03/04 05:33:04;;;;;;;60.08;39.08;;;;;;;2.92;84.23;100628.39;2813091;84;21950;-69
2022/03/04 05:37:06;;;;;;;72.65;44.33;;;;;;;2.92;84.46;100634.48;2813213;83;21110;-69
2022/03/04 05:41:07;;;;;;;74.77;42.88;;;;;;;2.99;84.47;100632.00;2812818;83;21562;-70
2022/03/04 05:45:10;;;;;;;67.78;41.88;;;;;;;3.10;84.28;100634.59;2812731;84;21089;-70
2022/03/04 05:49:12;;;;;;;59.98;38.70;;;;;;;3.09;84.10;100641.64;2812856;84;20983;-70
2022/03/04 05:53:14;;;;;;;59.18;37.35;;;;;;;3.10;84.02;100643.34;2812918;84;21003;-70
2022/03/04 05:57:15;;;;;;;66.37;41.55;;;;;;;3.03;84.17;100640.58;2813017;84;21046;-70
2022/03/04 06:01:17;;;;;;;69.42;38.23;;;;;;;2.96;84.68;100640.47;2812882;84;21046;-70
2022/03/04 06:05:21;;;;;;;61.08;38.23;;;;;;;2.87;85.23;100648.30;2812805;83;21054;-70
2022/03/04 06:09:27;;;;;;;54.27;35.85;;;;;;;2.80;85.77;100655.59;2812340;84;21063;-70
2022/03/04 06:13:26;;;;;;;62.05;37.25;;;;;;;2.76;85.94;100654.50;2811902;83;21091;-70
2022/03/04 06:17:27;;;;;;;65.12;40.85;;;;;;;2.74;86.03;100658.94;2812908;84;21073;-70
2022/03/04 06:21:29;;;;;;;59.40;38.73;;;;;;;2.82;86.00;100661.63;2812787;84;21050;-70
2022/03/04 06:25:30;;;;;;;65.55;38.85;;;;;;;2.82;85.61;100666.88;2812623;83;21065;-70
2022/03/04 06:29:32;;;;;;;57.83;35.30;;;;;;;2.80;85.65;100676.61;2811787;83;21090;-70
2022/03/04 06:33:35;;;;;;;63.28;39.25;;;;;;;2.74;85.80;100682.58;2812205;84;21062;-70
2022/03/04 06:37:36;;;;;;;67.37;41.48;;;;;;;2.67;86.38;100680.22;2812396;84;21086;-70
2022/03/04 06:41:38;;;;;;;62.00;41.65;;;;;;;2.75;86.39;100679.03;2812499;84;21030;-70
2022/03/04 06:45:45;;;;;;;74.70;45.95;;;;;;;2.74;86.40;100682.58;2812939;84;21050;-70
2022/03/04 06:49:46;;;;;;;66.62;42.35;;;;;;;2.69;86.72;100684.95;2812988;84;21089;-69
2022/03/04 06:53:48;;;;;;;67.80;40.60;;;;;;;2.67;87.38;100693.36;2813124;84;21050;-70
2022/03/04 06:57:51;;;;;;;70.10;43.68;;;;;;;2.68;87.42;100694.23;2813100;84;21109;-68
2022/03/04 07:01:52;;;;;;;81.40;44.05;;;;;;;2.64;87.61;100697.44;2813201;84;21048;-70
2022/03/04 07:05:54;;;;;;;84.95;48.15;;;;;;;2.75;87.68;100698.29;2813489;84;21071;-70
2022/03/04 07:09:56;;;;;;;79.87;47.13;;;;;;;2.84;87.96;100702.30;2812937;84;21067;-70
2022/03/04 07:13:57;;;;;;;68.33;42.38;;;;;;;2.75;87.67;100714.50;2813437;84;21028;-69
2022/03/04 07:17:59;;;;;;;76.53;40.00;;;;;;;2.73;88.12;100718.52;2813058;84;21126;-70
2022/03/04 07:22:00;;;;;;;64.70;41.37;;;;;;;2.65;88.49;100717.97;2813091;83;21052;-70
2022/03/04 07:26:08;;;;;;;76.12;43.30;;;;;;;2.68;88.80;100723.96;2812812;84;21052;-70
2022/03/04 07:30:12;;;;;;;83.67;45.75;;;;;;;2.71;88.65;100733.02;2811777;84;21147;-70
2022/03/04 07:34:14;;;;;;;77.30;47.27;;;;;;;2.70;88.43;100728.69;2812978;83;21059;-70
2022/03/04 07:38:15;;;;;;;83.22;45.98;;;;;;;2.81;88.20;100733.48;2813209;84;21548;-70
2022/03/04 07:42:17;;;;;;;79.65;44.63;;;;;;;2.83;87.87;100733.44;2813099;84;21056;-70
2022/03/04 07:46:19;;;;;;;77.05;44.05;;;;;;;2.90;87.89;100738.81;2813411;84;21031;-69
2022/03/04 07:50:20;;;;;;;88.45;49.65;;;;;;;2.82;87.53;100739.61;2813138;84;21115;-70
2022/03/04 07:54:22;;;;;;;73.72;41.63;;;;;;;2.88;87.89;100743.28;2813060;83;21044;-70
2022/03/04 07:58:24;;;;;;;71.97;40.88;;;;;;;2.91;88.11;100747.09;2813042;84;21055;-70
2022/03/04 08:02:25;;;;;;;73.40;42.00;;;;;;;2.91;87.65;100751.03;2812988;84;20997;-70
2022/03/04 08:06:27;;;;;;;81.67;43.15;;;;;;;2.92;87.42;100751.42;2813306;84;21076;-70
2022/03/04 08:10:29;;;;;;;66.82;41.10;;;;;;;2.87;87.83;100751.25;2813271;83;21593;-70
2022/03/04 08:14:30;;;;;;;75.62;46.02;;;;;;;2.95;87.85;100754.40;2813196;84;21060;-70
2022/03/04 08:18:32;;;;;;;72.22;39.00;;;;;;;3.01;88.41;100758.06;2813137;84;21056;-70
2022/03/04 08:22:34;;;;;;;68.62;43.52;;;;;;;3.12;87.69;100761.10;2812811;84;21054;-70
2022/03/04 08:26:38;;;;;;;68.55;39.75;;;;;;;3.30;86.78;100766.48;2813148;84;21572;-71
2022/03/04 08:30:39;;;;;;;63.23;37.93;;;;;;;3.33;86.36;100765.48;2813322;83;21212;-69
2022/03/04 08:34:41;;;;;;;73.72;40.83;;;;;;;3.46;86.14;100762.71;2813387;84;21068;-69
2022/03/04 08:38:43;;;;;;;82.80;41.73;;;;;;;3.52;85.53;100772.11;2813770;84;21087;-69
2022/03/04 08:42:46;;;;;;;66.30;37.75;;;;;;;3.68;84.51;100761.74;2813315;84;21001;-69
2022/03/04 08:46:47;;;;;;;59.30;39.42;;;;;;;3.72;84.16;100765.94;2813587;84;21569;-70
2022/03/04 08:50:49;;;;;;;63.48;41.20;;;;;;;3.78;84.09;100770.07;2814009;84;21564;-70
2022/03/04 08:54:51;;;;;;;75.72;46.02;;;;;;;3.72;83.87;100769.88;2813751;83;20996;-70
2022/03/04 08:58:53;;;;;;;73.22;42.40;;;;;;;3.79;83.95;100772.64;2813690;84;21096;-69
2022/03/04 09:02:55;;;;;;;59.33;38.67;;;;;;;3.89;83.96;100774.84;2813930;84;21055;-69
2022/03/04 09:06:57;;;;;;;64.25;39.95;;;;;;;4.09;82.98;100780.03;2813961;84;21123;-70
2022/03/04 09:10:59;;;;;;;61.70;37.03;;;;;;;4.09;82.63;100783.98;2813889;84;21060;-70
2022/03/04 09:15:01;;;;;;;57.55;37.23;;;;;;;4.18;82.06;100791.08;2813995;83;21056;-70
2022/03/04 09:19:03;;;;;;;66.00;40.28;;;;;;;4.18;81.96;100789.76;2813787;84;21012;-70
2022/03/04 09:23:05;;;;;;;63.28;34.80;;;;;;;4.18;81.78;100795.86;2813904;84;21004;-69
2022/03/04 09:27:07;;;;;;;62.48;40.00;;;;;;;4.28;81.16;100797.16;2814267;83;22252;-69
2022/03/04 09:31:09;;;;;;;62.62;39.50;;;;;;;4.34;81.84;100803.91;2813823;84;21091;-69
2022/03/04 09:35:11;;;;;;;62.53;37.17;;;;;;;4.43;81.76;100798.19;2814140;84;21004;-70
2022/03/04 09:39:13;;;;;;;65.75;36.03;;;;;;;4.42;80.87;100799.57;2813883;84;21059;-70
2022/03/04 09:43:17;;;;;;;58.75;35.90;;;;;;;4.47;80.95;100804.18;2813742;83;21055;-70
2022/03/04 09:47:23;;;;;;;57.13;33.78;;;;;;;4.43;80.78;100804.78;2814065;84;21040;-69
2022/03/04 09:51:25;;;;;;;60.20;37.35;;;;;;;4.43;80.67;100802.14;2814281;84;21076;-70
2022/03/04 09:55:27;;;;;;;52.62;31.20;;;;;;;4.56;80.67;100801.56;2813898;84;21024;-70
2022/03/04 09:59:28;;;;;;;57.00;38.02;;;;;;;4.63;80.43;100805.59;2813800;84;21008;-70
2022/03/04 10:03:35;;;;;;;51.77;33.33;;;;;;;4.68;80.06;100796.16;2813850;84;21103;-69
2022/03/04 10:07:47;;;;;;;52.23;29.85;;;;;;;4.74;79.99;100805.07;2813749;84;21032;-69
2022/03/04 10:11:48;;;;;;;55.00;32.00;;;;;;;4.68;79.83;100799.63;2813762;83;21106;-69
2022/03/04 10:15:55;;;;;;;47.88;29.40;;;;;;;4.76;79.97;100804.53;2811535;84;21052;-70
2022/03/04 10:20:00;;;;;;;51.00;30.43;;;;;;;4.78;80.22;100805.78;2813767;84;21048;-70
2022/03/04 10:24:09;;;;;;;38.38;27.45;;;;;;;4.75;80.40;100809.89;2813921;84;21055;-70
2022/03/04 10:28:12;;;;;;;37.65;24.92;;;;;;;4.75;80.11;100816.48;2813898;83;21063;-70
2022/03/04 10:32:22;;;;;;;39.25;26.70;;;;;;;4.77;79.77;100809.35;2812011;84;21087;-70
2022/03/04 10:36:24;;;;;;;44.63;27.98;;;;;;;4.81;79.37;100809.09;2812107;84;21035;-70
2022/03/04 10:40:29;;;;;;;41.58;27.05;;;;;;;4.82;79.43;100809.52;2811833;84;21067;-69
2022/03/04 10:44:31;;;;;;;40.95;24.65;;;;;;;4.96;79.86;100800.92;2812015;84;21092;-70
2022/03/04 10:48:32;;;;;;;46.28;25.90;;;;;;;4.88;79.45;100792.52;2812309;84;21067;-70
2022/03/04 10:52:35;;;;;;;47.93;28.38;;;;;;;5.09;79.20;100794.55;2812129;84;21095;-70
2022/03/04 10:56:54;;;;;;;45.90;27.40;;;;;;;5.15;79.24;100789.44;2814097;84;21564;-70
2022/03/04 11:01:05;;;;;;;38.08;24.50;;;;;;;5.33;78.23;100792.06;2812450;84;21059;-70
2022/03/04 11:05:08;;;;;;;38.78;27.30;;;;;;;5.46;76.76;100794.91;2812391;84;21055;-69
2022/03/04 11:09:10;;;;;;;34.75;24.57;;;;;;;5.57;77.10;100789.45;2812998;84;21007;-70
2022/03/04 11:13:12;;;;;;;37.13;21.68;;;;;;;5.58;76.65;100793.80;2812629;84;21071;-70
2022/03/04 11:17:14;;;;;;;37.90;24.37;;;;;;;5.47;76.79;100797.45;2812731;84;21444;-70
2022/03/04 11:21:16;;;;;;;30.72;20.25;;;;;;;5.66;76.42;100793.84;2812745;84;21540;-70
2022/03/04 11:25:18;;;;;;;34.73;25.15;;;;;;;5.55;76.56;100793.96;2813005;83;21023;-69
2022/03/04 11:29:35;;;;;;;54.53;32.38;;;;;;;5.76;77.13;100789.80;2828578;83;21060;-69
2022/03/04 11:33:49;;;;;;;27.02;18.80;;;;;;;5.71;76.16;100790.03;2835207;84;21097;-70
2022/03/04 11:37:51;;;;;;;24.92;18.85;;;;;;;5.69;76.46;100787.08;2834887;84;21534;-69
2022/03/04 11:41:59;;;;;;;25.40;18.73;;;;;;;5.50;75.58;100792.49;2835307;84;21066;-70
2022/03/04 11:46:04;;;;;;;34.48;23.07;;;;;;;5.48;76.07;100795.20;2834813;84;21545;-70
2022/03/04 11:50:31;;;;;;;30.85;21.62;;;;;;;5.43;76.45;100797.23;2835205;84;21049;-70
2022/03/04 11:54:32;;;;;;;27.75;18.20;;;;;;;5.23;76.72;100798.28;2831153;84;21585;-69
2022/03/04 11:59:11;;;;;;;28.52;18.10;;;;;;;5.28;76.28;100797.57;2831710;84;21517;-70
2022/03/04 12:03:13;;;;;;;29.55;16.55;;;;;;;5.17;76.62;100794.62;2829814;84;21071;-69
2022/03/04 12:07:15;;;;;;;23.65;15.80;;;;;;;4.88;77.61;100804.86;2831719;84;21012;-70
2022/03/04 12:11:24;;;;;;;25.00;17.17;;;;;;;5.03;77.51;100806.73;2831873;84;21083;-70
2022/03/04 12:15:30;;;;;;;26.50;18.87;;;;;;;5.11;77.87;100805.00;2880698;82;21040;-70
2022/03/04 12:19:36;;;;;;;29.80;18.98;;;;;;;5.14;77.22;100808.83;2880994;82;21549;-69
2022/03/04 12:23:46;;;;;;;29.12;20.08;;;;;;;5.12;77.52;100808.89;2881044;82;21004;-70
2022/03/04 12:27:53;;;;;;;32.55;17.20;;;;;;;5.18;77.73;100808.19;2880907;82;20989;-70
2022/03/04 12:31:55;;;;;;;24.43;17.48;;;;;;;5.22;78.38;100814.55;2849959;82;21073;-70
2022/03/04 12:36:00;;;;;;;21.87;14.78;;;;;;;5.23;77.21;100810.98;2844795;83;21017;-69
2022/03/04 12:40:04;;;;;;;21.97;14.18;;;;;;;5.28;76.71;100815.55;2844405;83;21017;-70
2022/03/04 12:44:08;;;;;;;19.17;13.88;;;;;;;5.26;76.55;100821.86;2844812;83;21017;-70
2022/03/04 12:48:10;;;;;;;21.23;15.98;;;;;;;5.33;77.04;100823.72;2844530;83;21004;-69
2022/03/04 12:52:11;;;;;;;14.23;11.55;;;;;;;5.32;76.36;100819.38;2844596;83;21304;-69
2022/03/04 12:56:13;;;;;;;12.00;9.23;;;;;;;5.23;75.69;100820.22;2808214;84;21654;-70
2022/03/04 13:00:15;;;;;;;14.15;11.20;;;;;;;5.21;75.27;100825.17;2776943;85;21058;-70
2022/03/04 13:04:17;;;;;;;17.17;11.45;;;;;;;5.14;76.01;100820.22;2776319;85;21018;-69
2022/03/04 13:08:19;;;;;;;17.23;10.78;;;;;;;5.17;76.03;100823.18;2776961;85;21061;-70
2022/03/04 13:12:22;;;;;;;16.30;9.68;;;;;;;5.14;75.45;100818.90;2776936;85;21070;-70
2022/03/04 13:16:31;;;;;;;12.30;9.03;;;;;;;5.10;75.16;100821.77;2777348;85;21649;-70
2022/03/04 13:20:33;;;;;;;13.20;10.05;;;;;;;5.12;75.06;100818.12;2777138;85;21054;-70
2022/03/04 13:24:43;;;;;;;15.60;10.50;;;;;;;5.09;75.11;100823.56;2777051;85;21030;-69
2022/03/04 13:28:59;;;;;;;12.98;8.88;;;;;;;5.14;74.92;100822.02;2842912;82;21045;-70
2022/03/04 13:33:04;;;;;;;13.75;8.68;;;;;;;5.23;75.60;100820.22;2843854;83;21081;-70
2022/03/04 13:37:11;;;;;;;12.53;9.28;;;;;;;5.27;75.19;100824.41;2843968;83;21009;-70
2022/03/04 13:41:21;;;;;;;11.60;8.03;;;;;;;5.34;75.18;100826.75;2844464;83;21009;-70
2022/03/04 13:45:44;;;;;;;10.45;9.25;;;;;;;5.29;74.50;100830.93;2844388;83;21017;-70
2022/03/04 13:49:50;;;;;;;14.83;10.03;;;;;;;5.37;74.56;100819.50;2843610;83;21013;-69
2022/03/04 13:54:00;;;;;;;9.68;8.23;;;;;;;5.46;74.28;100819.98;2808203;84;21030;-69
2022/03/04 13:58:21;;;;;;;12.15;9.00;;;;;;;5.58;74.67;100820.19;2776977;85;21114;-70
2022/03/04 14:02:22;;;;;;;12.90;8.73;;;;;;;5.57;74.60;100822.44;2777316;85;21030;-70
2022/03/04 14:06:25;;;;;;;10.65;9.13;;;;;;;5.60;74.15;100824.08;2777441;85;21023;-70
2022/03/04 14:10:27;;;;;;;10.53;8.53;;;;;;;5.68;74.18;100821.88;2777182;85;21094;-70
2022/03/04 14:14:29;;;;;;;16.87;8.73;;;;;;;5.72;73.39;100821.26;2777257;85;21093;-70
2022/03/04 14:18:31;;;;;;;12.60;9.80;;;;;;;5.64;73.97;100819.47;2727890;85;21676;-72
2022/03/04 14:22:33;;;;;;;15.05;8.78;;;;;;;5.57;74.28;100825.08;2706678;85;21071;-70
2022/03/04 14:26:34;;;;;;;10.13;8.65;;;;;;;5.55;73.51;100826.95;2725711;87;21143;-70
2022/03/04 14:30:41;;;;;;;15.05;10.53;;;;;;;5.56;74.10;100829.98;2741720;86;21058;-70
2022/03/04 14:34:43;;;;;;;12.98;8.93;;;;;;;5.55;73.92;100828.27;2767629;86;21062;-70
2022/03/04 14:38:44;;;;;;;15.23;10.48;;;;;;;5.55;74.01;100830.91;2768112;86;21042;-69
2022/03/04 14:42:48;;;;;;;11.78;10.55;;;;;;;5.52;75.06;100824.48;2768297;85;21429;-70
2022/03/04 14:46:49;;;;;;;11.65;9.65;;;;;;;5.42;74.17;100828.06;2768475;86;21042;-69
2022/03/04 14:50:51;;;;;;;16.12;10.88;;;;;;;5.40;74.73;100827.73;2768159;85;21054;-70
2022/03/04 14:54:53;;;;;;;12.13;8.50;;;;;;;5.41;74.77;100827.67;2768346;85;21030;-70
2022/03/04 14:58:55;;;;;;;14.75;9.40;;;;;;;5.39;74.92;100827.36;2767965;86;21065;-70
2022/03/04 15:02:57;;;;;;;12.70;9.88;;;;;;;5.46;74.60;100830.53;2768145;86;21089;-70
2022/03/04 15:06:59;;;;;;;9.20;7.53;;;;;;;5.46;74.36;100835.81;2767936;86;21074;-70
2022/03/04 15:11:00;;;;;;;15.45;10.28;;;;;;;5.48;74.41;100841.38;2768435;86;21058;-70
2022/03/04 15:15:03;;;;;;;11.63;9.15;;;;;;;5.46;75.15;100840.61;2768254;85;21018;-70
2022/03/04 15:19:05;;;;;;;13.98;9.50;;;;;;;5.47;75.41;100839.67;2768327;86;21037;-70
2022/03/04 15:23:06;;;;;;;9.58;8.05;;;;;;;5.56;75.46;100839.66;2768206;86;21085;-70
2022/03/04 15:27:10;;;;;;;9.85;8.43;;;;;;;5.55;75.60;100842.78;2768316;86;21082;-69
2022/03/04 15:31:12;;;;;;;14.25;10.68;;;;;;;5.55;75.85;100842.78;2766487;86;21069;-70
2022/03/04 15:35:15;;;;;;;15.83;10.82;;;;;;;5.55;75.61;100842.78;2734704;85;21003;-70
2022/03/04 15:39:17;;;;;;;14.18;10.88;;;;;;;5.51;75.36;100845.20;2734559;87;21046;-70
2022/03/04 15:43:19;;;;;;;16.95;10.00;;;;;;;5.52;75.77;100844.27;2734311;85;21062;-71
2022/03/04 15:47:21;;;;;;;15.58;12.03;;;;;;;5.49;76.02;100851.48;2734349;87;21082;-70
2022/03/04 15:51:22;;;;;;;14.35;10.48;;;;;;;5.46;76.20;100849.84;2734063;87;21046;-70
2022/03/04 15:55:24;;;;;;;17.57;11.28;;;;;;;5.46;76.70;100852.48;2734564;87;22381;-71
2022/03/04 15:59:26;;;;;;;15.23;11.80;;;;;;;5.47;77.00;100850.23;2734268;87;21046;-71
2022/03/04 16:03:27;;;;;;;12.80;10.43;;;;;;;5.47;76.99;100854.19;2734365;87;21077;-71
2022/03/04 16:07:29;;;;;;;18.35;11.35;;;;;;;5.51;77.07;100849.16;2734519;87;21065;-71
2022/03/04 16:11:30;;;;;;;23.55;12.70;;;;;;;5.59;76.91;100854.02;2734411;86;21034;-71
2022/03/04 16:15:32;;;;;;;17.62;11.12;;;;;;;5.57;76.62;100850.16;2809148;84;21500;-70
2022/03/04 16:19:34;;;;;;;17.73;11.95;;;;;;;5.55;76.77;100855.98;2809108;84;21047;-71
2022/03/04 16:23:36;;;;;;;19.05;13.20;;;;;;;5.54;77.58;100855.59;2809522;84;21052;-70
2022/03/04 16:27:38;;;;;;;23.15;16.00;;;;;;;5.40;78.43;100858.08;2809421;84;21087;-70
2022/03/04 16:31:40;;;;;;;29.55;15.78;;;;;;;5.27;79.62;100863.13;2798271;84;21101;-71
2022/03/04 16:35:41;;;;;;;24.60;16.42;;;;;;;5.08;80.86;100864.05;2767928;84;21058;-70
2022/03/04 16:39:43;;;;;;;21.57;13.40;;;;;;;4.96;81.69;100869.47;2780595;85;21006;-71
2022/03/04 16:43:45;;;;;;;24.02;14.98;;;;;;;4.81;82.54;100873.69;2780177;85;21038;-70
2022/03/04 16:47:47;;;;;;;25.75;15.75;;;;;;;4.62;83.43;100881.63;2780078;84;21507;-70
2022/03/04 16:51:49;;;;;;;17.85;14.55;;;;;;;4.52;84.46;100881.66;2787384;85;21057;-70
2022/03/04 16:55:51;;;;;;;20.90;15.53;;;;;;;4.51;84.29;100886.09;2787395;85;21093;-71
2022/03/04 16:59:52;;;;;;;25.60;15.28;;;;;;;4.46;84.53;100890.73;2787390;85;21112;-71
2022/03/04 17:03:55;;;;;;;21.00;12.88;;;;;;;4.40;84.94;100887.91;2761197;86;23570;-71
2022/03/04 17:07:57;;;;;;;20.48;11.97;;;;;;;4.34;85.88;100894.78;2779384;85;21614;-71
2022/03/04 17:11:58;;;;;;;14.75;11.85;;;;;;;4.16;86.29;100887.73;2779674;84;21093;-71
2022/03/04 17:16:00;;;;;;;18.48;11.22;;;;;;;4.04;86.76;100885.19;2779259;84;21121;-71
2022/03/04 17:20:03;;;;;;;13.78;11.12;;;;;;;3.95;87.20;100891.72;2786396;85;21045;-72
2022/03/04 17:24:05;;;;;;;18.73;11.80;;;;;;;3.90;87.19;100881.38;2786428;85;21080;-71
2022/03/04 17:28:08;;;;;;;23.87;15.75;;;;;;;3.90;87.01;100884.46;2766458;86;21034;-71
2022/03/04 17:32:12;;;;;;;22.42;14.23;;;;;;;3.90;87.28;100884.46;2807593;82;21046;-69
2022/03/04 17:36:14;;;;;;;26.82;17.52;;;;;;;3.88;87.36;100879.73;2802533;83;21045;-69
2022/03/04 17:40:16;;;;;;;31.00;17.52;;;;;;;3.83;87.55;100878.61;2804302;83;21723;-69
2022/03/04 17:44:19;;;;;;;27.02;16.23;;;;;;;3.74;88.29;100889.55;2826854;82;21002;-69
2022/03/04 17:48:24;;;;;;;32.35;20.62;;;;;;;3.65;88.65;100886.86;2816278;83;21030;-69
2022/03/04 17:52:24;;;;;;;32.50;20.45;;;;;;;3.66;88.65;100895.14;2827277;84;21535;-69
2022/03/04 17:56:26;;;;;;;26.65;16.12;;;;;;;3.67;88.69;100892.91;2833752;84;21065;-68
2022/03/04 18:00:28;;;;;;;28.45;18.67;;;;;;;3.67;88.60;100899.04;2826263;83;21080;-68
2022/03/04 18:04:29;;;;;;;23.15;15.03;;;;;;;3.58;89.17;100900.73;2813048;84;21007;-68
2022/03/04 18:08:31;;;;;;;35.63;14.50;;;;;;;3.48;89.89;100905.53;2810990;84;21042;-68
2022/03/04 18:12:33;;;;;;;17.40;12.95;;;;;;;3.42;90.47;100911.91;2821794;84;21101;-68
2022/03/04 18:16:34;;;;;;;23.25;14.55;;;;;;;3.35;91.11;100909.62;2826238;83;22319;-68
2022/03/04 18:20:36;;;;;;;31.68;13.62;;;;;;;3.35;91.32;100915.72;2825179;82;21046;-68
2022/03/04 18:24:41;;;;;;;23.35;15.25;;;;;;;3.48;90.81;100915.22;2832913;84;21073;-68
2022/03/04 18:28:43;;;;;;;22.30;16.05;;;;;;;3.62;90.38;100915.94;2833793;84;21083;-68
2022/03/04 18:32:45;;;;;;;21.77;15.58;;;;;;;3.77;89.86;100915.29;2820730;83;21126;-69
2022/03/04 18:36:47;;;;;;;27.02;16.00;;;;;;;3.89;88.98;100910.39;2768011;86;21548;-68